Time;durP1;ratioP1;P1;durP2;ratioP2;P2;SDS_P1;SDS_P2;PMS_P1;PMS_P2;Temp;Humidity;BMP_temperature;BMP_pressure;BME280_temperature;BME280_humidity;BME280_pressure;Samples;Min_cycle;Max_cycle;Signal;HPM_P1;HPM_P2
2022/07/26 00:01:02;;;;;;;10.07;8.32;;;;;;;;;;5012583;28;20033;-77
2022/07/26 00:03:59;;;;;;;9.77;7.13;;;;;;;;;;4961312;28;20133;-77
2022/07/26 00:06:24;;;;;;;9.63;7.18;;;;;;;;;;4992086;28;20121;-77
2022/07/26 00:08:50;;;;;;;10.85;8.10;;;;;;;;;;4975517;28;20516;-76
2022/07/26 00:11:15;;;;;;;9.52;7.60;;;;;;;;;;4993345;28;20804;-76
2022/07/26 00:13:41;;;;;;;11.10;6.93;;;;;;;;;;4999658;28;20137;-80
2022/07/26 00:16:06;;;;;;;8.98;7.78;;;;;;;;;;4988557;28;20027;-78
2022/07/26 00:18:32;;;;;;;11.27;8.63;;;;;;;;;;4992899;28;20032;-79
2022/07/26 00:20:57;;;;;;;9.50;7.43;;;;;;;;;;4992626;28;20429;-75
2022/07/26 00:23:23;;;;;;;12.25;9.05;;;;;;;;;;4992878;28;20049;-76
2022/07/26 00:25:48;;;;;;;10.40;7.93;;;;;;;;;;4992475;28;20033;-77
2022/07/26 00:28:14;;;;;;;10.57;8.73;;;;;;;;;;4975321;28;20042;-76
2022/07/26 00:30:39;;;;;;;10.90;9.38;;;;;;;;;;4992179;28;20037;-76
2022/07/26 00:33:05;;;;;;;10.68;8.18;;;;;;;;;;4992886;28;20524;-75
2022/07/26 00:35:30;;;;;;;11.55;8.90;;;;;;;;;;4974913;28;20500;-76
2022/07/26 00:37:56;;;;;;;9.57;8.50;;;;;;;;;;4986986;28;20112;-77
2022/07/26 00:40:21;;;;;;;10.10;8.18;;;;;;;;;;4976073;28;20068;-75
2022/07/26 00:42:47;;;;;;;10.77;7.53;;;;;;;;;;5002272;28;20030;-76
2022/07/26 00:45:12;;;;;;;9.70;8.70;;;;;;;;;;4993212;28;20452;-76
2022/07/26 00:47:38;;;;;;;8.88;7.28;;;;;;;;;;4964516;28;20066;-76
2022/07/26 00:50:04;;;;;;;10.43;9.15;;;;;;;;;;4976826;28;20096;-78
2022/07/26 00:52:29;;;;;;;9.93;8.00;;;;;;;;;;4984019;28;20054;-77
2022/07/26 00:54:55;;;;;;;10.80;9.65;;;;;;;;;;4992444;28;20497;-75
2022/07/26 00:57:21;;;;;;;10.43;8.90;;;;;;;;;;4991410;28;20034;-77
2022/07/26 00:59:46;;;;;;;7.90;7.18;;;;;;;;;;4992658;28;20133;-75
2022/07/26 01:02:12;;;;;;;8.07;7.18;;;;;;;;;;4975196;28;20030;-77
2022/07/26 01:04:37;;;;;;;9.02;7.93;;;;;;;;;;4993392;28;20225;-75
2022/07/26 01:07:03;;;;;;;10.00;8.05;;;;;;;;;;4998206;28;20133;-77
2022/07/26 01:09:28;;;;;;;8.75;7.78;;;;;;;;;;4965216;28;20120;-77
2022/07/26 01:11:53;;;;;;;10.95;9.18;;;;;;;;;;5015078;28;20037;-78
2022/07/26 01:14:20;;;;;;;10.38;7.75;;;;;;;;;;5014979;28;20022;-75
2022/07/26 01:16:45;;;;;;;10.07;8.48;;;;;;;;;;5004695;28;20023;-77
2022/07/26 01:19:11;;;;;;;12.55;9.55;;;;;;;;;;4999492;28;20542;-77
2022/07/26 01:21:36;;;;;;;11.45;8.90;;;;;;;;;;4987108;28;20031;-79
2022/07/26 01:24:02;;;;;;;10.75;9.30;;;;;;;;;;4995122;28;20041;-77
2022/07/26 01:26:27;;;;;;;8.93;7.78;;;;;;;;;;5014961;28;20052;-77
2022/07/26 01:28:53;;;;;;;10.82;9.10;;;;;;;;;;5013999;28;20503;-77
2022/07/26 01:31:18;;;;;;;13.52;9.63;;;;;;;;;;5003018;28;20440;-77
2022/07/26 01:33:44;;;;;;;8.60;7.25;;;;;;;;;;4977853;28;20061;-76
2022/07/26 01:36:11;;;;;;;10.95;8.75;;;;;;;;;;4986375;28;20030;-77
2022/07/26 01:38:36;;;;;;;8.73;7.75;;;;;;;;;;4995113;28;20424;-76
2022/07/26 01:41:02;;;;;;;9.90;8.48;;;;;;;;;;4974761;28;20031;-76
2022/07/26 01:43:27;;;;;;;9.90;8.60;;;;;;;;;;4977973;28;20037;-75
2022/07/26 01:45:53;;;;;;;11.25;9.77;;;;;;;;;;4987453;28;20050;-77
2022/07/26 01:48:18;;;;;;;10.18;9.07;;;;;;;;;;4982797;28;20125;-80
2022/07/26 01:50:43;;;;;;;11.65;10.02;;;;;;;;;;4977970;28;20092;-76
2022/07/26 01:53:09;;;;;;;12.23;9.07;;;;;;;;;;4994771;28;20050;-76
2022/07/26 01:55:35;;;;;;;11.85;10.65;;;;;;;;;;4995582;28;20038;-77
2022/07/26 01:58:00;;;;;;;10.57;8.68;;;;;;;;;;4961827;28;20027;-77
2022/07/26 02:00:25;;;;;;;9.57;8.63;;;;;;;;;;4984548;28;20384;-76
2022/07/26 02:02:51;;;;;;;9.68;8.68;;;;;;;;;;4993270;28;20034;-77
2022/07/26 02:05:16;;;;;;;11.95;9.35;;;;;;;;;;5003056;28;20540;-78
2022/07/26 02:07:42;;;;;;;10.88;9.15;;;;;;;;;;4989959;28;20122;-77
2022/07/26 02:10:08;;;;;;;9.23;8.05;;;;;;;;;;5004142;28;20064;-77
2022/07/26 02:12:34;;;;;;;10.32;8.55;;;;;;;;;;4996047;28;20033;-76
2022/07/26 02:14:59;;;;;;;15.85;10.02;;;;;;;;;;4986627;28;20030;-77
2022/07/26 02:17:25;;;;;;;9.77;8.77;;;;;;;;;;4991784;28;20460;-76
2022/07/26 02:19:51;;;;;;;12.18;8.90;;;;;;;;;;5013832;28;20018;-76
2022/07/26 02:22:17;;;;;;;10.85;8.73;;;;;;;;;;4999950;28;20040;-76
2022/07/26 02:24:43;;;;;;;12.27;9.10;;;;;;;;;;5003250;28;20444;-77
2022/07/26 02:27:08;;;;;;;12.05;10.05;;;;;;;;;;4994215;28;20041;-77
2022/07/26 02:29:34;;;;;;;10.98;8.95;;;;;;;;;;4977218;28;20493;-77
2022/07/26 02:31:59;;;;;;;8.57;7.63;;;;;;;;;;4991728;28;20065;-76
2022/07/26 02:34:24;;;;;;;9.25;8.35;;;;;;;;;;4985723;28;20030;-75
2022/07/26 02:36:50;;;;;;;8.65;7.53;;;;;;;;;;4991584;28;20445;-77
2022/07/26 02:39:15;;;;;;;10.35;8.27;;;;;;;;;;5003119;28;20018;-76
2022/07/26 02:41:41;;;;;;;10.45;8.23;;;;;;;;;;4993927;28;20045;-77
2022/07/26 02:44:07;;;;;;;11.95;9.02;;;;;;;;;;4976656;28;20434;-76
2022/07/26 02:46:32;;;;;;;8.70;7.78;;;;;;;;;;4993649;28;20504;-77
2022/07/26 02:48:59;;;;;;;11.05;8.52;;;;;;;;;;4973635;28;20037;-76
2022/07/26 02:51:25;;;;;;;8.75;7.78;;;;;;;;;;4988164;28;20073;-77
2022/07/26 02:53:50;;;;;;;9.88;8.55;;;;;;;;;;4984880;28;20574;-78
2022/07/26 02:56:15;;;;;;;11.80;10.60;;;;;;;;;;4980627;28;20034;-76
2022/07/26 02:58:41;;;;;;;9.43;8.45;;;;;;;;;;5002209;28;20081;-76
2022/07/26 03:01:06;;;;;;;9.52;8.52;;;;;;;;;;5010803;28;20042;-77
2022/07/26 03:03:32;;;;;;;10.80;8.55;;;;;;;;;;4984179;28;20484;-76
2022/07/26 03:05:57;;;;;;;9.75;8.13;;;;;;;;;;5010923;28;20049;-77
2022/07/26 03:08:23;;;;;;;8.63;7.80;;;;;;;;;;4987773;28;20062;-76
2022/07/26 03:10:48;;;;;;;11.18;9.10;;;;;;;;;;4973815;28;20080;-77
2022/07/26 03:13:14;;;;;;;10.40;8.25;;;;;;;;;;4997742;28;20037;-77
2022/07/26 03:15:39;;;;;;;9.00;7.90;;;;;;;;;;4997263;28;20034;-76
2022/07/26 03:18:05;;;;;;;10.60;7.75;;;;;;;;;;4995584;28;20475;-76
2022/07/26 03:20:30;;;;;;;10.23;7.63;;;;;;;;;;4982706;28;20041;-77
2022/07/26 03:22:56;;;;;;;8.15;7.35;;;;;;;;;;5012435;28;20385;-76
2022/07/26 03:25:21;;;;;;;9.10;8.20;;;;;;;;;;4965003;28;20058;-77
2022/07/26 03:27:46;;;;;;;7.95;7.15;;;;;;;;;;4976268;28;20034;-78
2022/07/26 03:30:12;;;;;;;9.38;8.38;;;;;;;;;;4988090;28;20050;-77
2022/07/26 03:32:37;;;;;;;9.52;8.20;;;;;;;;;;4972923;28;20038;-77
2022/07/26 03:35:03;;;;;;;8.07;6.90;;;;;;;;;;4970556;28;20030;-77
2022/07/26 03:37:29;;;;;;;8.35;7.53;;;;;;;;;;4976079;28;20030;-76
2022/07/26 03:39:54;;;;;;;7.40;6.70;;;;;;;;;;4974886;28;20038;-77
2022/07/26 03:42:20;;;;;;;7.75;6.75;;;;;;;;;;4979847;28;20026;-77
2022/07/26 03:44:46;;;;;;;7.32;6.50;;;;;;;;;;4975390;28;20050;-75
2022/07/26 03:47:11;;;;;;;7.45;6.75;;;;;;;;;;4980776;28;20026;-75
2022/07/26 03:49:37;;;;;;;7.20;6.53;;;;;;;;;;4975510;28;20049;-76
2022/07/26 03:52:02;;;;;;;7.32;6.32;;;;;;;;;;4982597;28;20095;-77
2022/07/26 03:54:27;;;;;;;6.88;6.18;;;;;;;;;;4995711;28;20034;-77
2022/07/26 03:56:53;;;;;;;6.47;5.75;;;;;;;;;;4990603;28;20026;-75
2022/07/26 03:59:18;;;;;;;8.30;6.20;;;;;;;;;;4991690;28;20465;-77
2022/07/26 04:01:44;;;;;;;7.88;7.03;;;;;;;;;;4982928;28;20034;-79
2022/07/26 04:04:10;;;;;;;7.38;6.32;;;;;;;;;;4994982;28;20085;-78
2022/07/26 04:06:35;;;;;;;7.45;6.65;;;;;;;;;;4984911;28;20118;-79
2022/07/26 04:09:01;;;;;;;8.13;6.78;;;;;;;;;;4996418;28;20126;-79
2022/07/26 04:11:26;;;;;;;7.35;6.60;;;;;;;;;;5003126;28;20468;-79
2022/07/26 04:13:52;;;;;;;6.93;6.22;;;;;;;;;;4993620;28;20401;-79
2022/07/26 04:16:17;;;;;;;7.63;6.80;;;;;;;;;;4973671;28;20022;-79
2022/07/26 04:18:43;;;;;;;9.93;6.80;;;;;;;;;;4977475;28;20057;-79
2022/07/26 04:21:08;;;;;;;7.88;6.30;;;;;;;;;;4993062;28;20481;-78
2022/07/26 04:23:34;;;;;;;7.50;6.05;;;;;;;;;;4975888;28;20030;-79
2022/07/26 04:25:59;;;;;;;9.48;7.15;;;;;;;;;;4997742;28;20089;-78
2022/07/26 04:28:27;;;;;;;7.50;6.78;;;;;;;;;;4975396;28;20030;-79
2022/07/26 04:30:53;;;;;;;8.05;6.60;;;;;;;;;;4989922;28;20080;-79
2022/07/26 04:33:19;;;;;;;7.50;6.70;;;;;;;;;;4991028;28;20081;-79
2022/07/26 04:35:44;;;;;;;8.25;7.45;;;;;;;;;;4990849;28;20485;-78
2022/07/26 04:38:10;;;;;;;8.60;7.70;;;;;;;;;;4996887;28;20081;-79
2022/07/26 04:40:35;;;;;;;8.38;7.47;;;;;;;;;;4985403;28;20072;-79
2022/07/26 04:43:01;;;;;;;7.32;6.63;;;;;;;;;;5016251;28;20030;-79
2022/07/26 04:45:26;;;;;;;8.07;7.28;;;;;;;;;;4998112;28;20060;-79
2022/07/26 04:47:52;;;;;;;8.18;7.10;;;;;;;;;;5003430;28;20048;-79
2022/07/26 04:50:18;;;;;;;8.82;7.22;;;;;;;;;;4996544;28;20045;-79
2022/07/26 04:52:43;;;;;;;7.10;6.38;;;;;;;;;;4991571;28;20050;-78
2022/07/26 04:55:09;;;;;;;9.07;8.18;;;;;;;;;;4985460;28;20041;-79
2022/07/26 04:57:34;;;;;;;8.70;6.85;;;;;;;;;;4998832;28;20437;-78
2022/07/26 05:00:00;;;;;;;10.10;7.80;;;;;;;;;;4989997;28;20396;-79
2022/07/26 05:02:25;;;;;;;9.40;8.15;;;;;;;;;;5003913;28;20076;-78
2022/07/26 05:04:51;;;;;;;9.40;8.15;;;;;;;;;;4979654;28;20516;-80
2022/07/26 05:07:16;;;;;;;9.45;7.97;;;;;;;;;;4967360;28;20041;-79
2022/07/26 05:09:42;;;;;;;8.50;7.55;;;;;;;;;;5012722;28;20362;-79
2022/07/26 05:12:07;;;;;;;7.68;6.97;;;;;;;;;;4986137;28;20046;-78
2022/07/26 05:14:33;;;;;;;9.75;7.75;;;;;;;;;;4996332;28;20065;-78
2022/07/26 05:16:58;;;;;;;8.90;7.78;;;;;;;;;;4996492;28;20050;-80
2022/07/26 05:19:24;;;;;;;9.00;7.40;;;;;;;;;;4996164;28;20057;-78
2022/07/26 05:21:50;;;;;;;8.95;7.47;;;;;;;;;;5003260;28;20038;-79
2022/07/26 05:24:16;;;;;;;12.00;8.43;;;;;;;;;;4995104;28;20058;-78
2022/07/26 05:26:41;;;;;;;8.43;7.50;;;;;;;;;;4981671;28;20061;-79
2022/07/26 05:29:07;;;;;;;10.20;7.80;;;;;;;;;;5002172;28;20446;-78
2022/07/26 05:31:32;;;;;;;9.88;7.30;;;;;;;;;;4965630;28;20559;-79
2022/07/26 05:33:57;;;;;;;7.70;6.55;;;;;;;;;;4997446;28;20030;-80
2022/07/26 05:36:23;;;;;;;8.50;7.70;;;;;;;;;;4998038;28;20404;-79
2022/07/26 05:38:48;;;;;;;8.68;7.57;;;;;;;;;;4993186;28;20519;-79
2022/07/26 05:41:14;;;;;;;10.50;9.40;;;;;;;;;;4996344;28;20591;-78
2022/07/26 05:43:39;;;;;;;8.50;7.60;;;;;;;;;;4978805;28;20049;-78
2022/07/26 05:46:05;;;;;;;10.85;8.10;;;;;;;;;;4962683;28;20390;-78
2022/07/26 05:48:30;;;;;;;9.77;7.88;;;;;;;;;;4988162;28;20027;-79
2022/07/26 05:50:56;;;;;;;9.18;8.07;;;;;;;;;;4982014;28;20500;-79
2022/07/26 05:53:21;;;;;;;8.85;7.88;;;;;;;;;;4997496;28;20137;-78
2022/07/26 05:55:47;;;;;;;10.27;8.63;;;;;;;;;;4978537;28;20129;-78
2022/07/26 05:58:12;;;;;;;8.40;7.57;;;;;;;;;;4978820;28;20129;-79
2022/07/26 06:00:38;;;;;;;8.65;7.63;;;;;;;;;;4995675;28;20097;-79
2022/07/26 06:03:20;;;;;;;8.93;8.02;;;;;;;;;;4995731;28;20393;-78
2022/07/26 06:05:49;;;;;;;11.48;9.00;;;;;;;;;;4977904;28;20035;-79
2022/07/26 06:08:15;;;;;;;8.15;6.97;;;;;;;;;;4985844;28;20029;-78
2022/07/26 06:10:40;;;;;;;7.88;6.85;;;;;;;;;;4996814;28;20562;-79
2022/07/26 06:13:06;;;;;;;8.68;7.78;;;;;;;;;;5015711;28;20033;-80
2022/07/26 06:15:32;;;;;;;7.93;7.13;;;;;;;;;;5015266;28;20038;-79
2022/07/26 06:17:57;;;;;;;9.93;8.30;;;;;;;;;;4990716;28;20037;-80
2022/07/26 06:20:23;;;;;;;10.43;7.82;;;;;;;;;;4995302;28;20097;-79
2022/07/26 06:22:50;;;;;;;9.25;7.05;;;;;;;;;;4996062;28;20031;-79
2022/07/26 06:25:16;;;;;;;10.43;8.15;;;;;;;;;;4974747;28;20500;-79
2022/07/26 06:27:41;;;;;;;9.25;7.22;;;;;;;;;;4995537;28;20114;-80
2022/07/26 06:30:07;;;;;;;10.00;8.48;;;;;;;;;;5008106;28;20120;-80
2022/07/26 06:32:33;;;;;;;10.18;6.97;;;;;;;;;;4988625;28;20369;-80
2022/07/26 06:34:59;;;;;;;9.07;8.10;;;;;;;;;;4983291;28;20034;-80
2022/07/26 06:37:24;;;;;;;8.23;7.43;;;;;;;;;;5000669;28;20080;-80
2022/07/26 06:39:51;;;;;;;9.05;7.88;;;;;;;;;;4997368;28;20565;-83
2022/07/26 06:42:17;;;;;;;8.32;7.53;;;;;;;;;;4977843;28;20038;-80
2022/07/26 06:44:44;;;;;;;8.73;7.32;;;;;;;;;;4993628;28;20038;-80
2022/07/26 06:47:09;;;;;;;9.02;8.13;;;;;;;;;;4977756;28;20534;-79
2022/07/26 06:49:35;;;;;;;8.55;7.70;;;;;;;;;;4993892;28;20038;-79
2022/07/26 06:52:00;;;;;;;10.13;7.75;;;;;;;;;;4995203;28;20515;-78
2022/07/26 06:54:41;;;;;;;8.80;7.85;;;;;;;;;;4949106;28;20421;-80
2022/07/26 06:57:07;;;;;;;8.93;7.68;;;;;;;;;;5001840;28;20026;-79
2022/07/26 06:59:32;;;;;;;8.30;7.50;;;;;;;;;;4961377;28;20110;-78
2022/07/26 07:01:58;;;;;;;8.75;7.85;;;;;;;;;;5011964;28;20129;-80
2022/07/26 07:04:23;;;;;;;9.15;8.15;;;;;;;;;;4960762;28;20069;-80
2022/07/26 07:06:48;;;;;;;9.98;8.13;;;;;;;;;;4995640;28;20132;-78
2022/07/26 07:09:14;;;;;;;7.95;6.93;;;;;;;;;;4992089;28;20030;-79
2022/07/26 07:11:39;;;;;;;9.27;8.27;;;;;;;;;;4977609;28;20057;-80
2022/07/26 07:14:05;;;;;;;9.82;8.82;;;;;;;;;;4994771;28;20101;-84
2022/07/26 07:16:31;;;;;;;9.98;8.98;;;;;;;;;;4977769;28;20030;-83
2022/07/26 07:18:56;;;;;;;9.80;8.80;;;;;;;;;;4988808;28;20037;-84
2022/07/26 07:21:21;;;;;;;9.02;8.02;;;;;;;;;;4977581;28;20170;-79
2022/07/26 07:23:47;;;;;;;10.05;8.18;;;;;;;;;;4994670;28;20045;-80
2022/07/26 07:26:12;;;;;;;9.50;8.50;;;;;;;;;;5002372;28;20148;-79
2022/07/26 07:28:38;;;;;;;9.05;8.15;;;;;;;;;;4965693;28;20085;-80
2022/07/26 07:31:04;;;;;;;10.82;9.57;;;;;;;;;;4971285;28;20038;-80
2022/07/26 07:33:29;;;;;;;9.38;8.38;;;;;;;;;;4961259;28;20030;-80
2022/07/26 07:35:55;;;;;;;9.80;8.80;;;;;;;;;;4963087;28;20130;-78
2022/07/26 07:38:20;;;;;;;10.88;9.27;;;;;;;;;;5010757;28;20025;-78
2022/07/26 07:40:46;;;;;;;11.52;8.52;;;;;;;;;;4993332;28;20104;-81
2022/07/26 07:43:11;;;;;;;10.43;8.75;;;;;;;;;;4976841;28;20030;-80
2022/07/26 07:45:37;;;;;;;10.65;9.55;;;;;;;;;;4976544;28;20026;-80
2022/07/26 07:48:04;;;;;;;11.50;9.48;;;;;;;;;;4989123;28;20032;-83
2022/07/26 07:50:29;;;;;;;12.25;9.32;;;;;;;;;;4976873;28;20386;-78
2022/07/26 07:52:55;;;;;;;12.77;9.57;;;;;;;;;;4983519;28;20133;-79
2022/07/26 07:55:20;;;;;;;12.50;9.63;;;;;;;;;;4977743;28;20037;-83
2022/07/26 07:57:45;;;;;;;11.13;9.45;;;;;;;;;;4994586;28;20061;-79
2022/07/26 08:00:14;;;;;;;12.35;10.35;;;;;;;;;;4973529;28;20039;-80
2022/07/26 08:02:39;;;;;;;12.57;8.88;;;;;;;;;;4985396;28;20030;-80
2022/07/26 08:05:06;;;;;;;13.57;10.05;;;;;;;;;;5006639;28;20030;-82
2022/07/26 08:07:32;;;;;;;13.23;8.70;;;;;;;;;;4960880;28;20022;-78
2022/07/26 08:09:57;;;;;;;11.30;8.95;;;;;;;;;;4993954;28;20127;-79
2022/07/26 08:12:24;;;;;;;9.85;8.85;;;;;;;;;;4993897;28;20088;-81
2022/07/26 08:14:51;;;;;;;9.70;8.40;;;;;;;;;;4994403;28;20117;-81
2022/07/26 08:17:16;;;;;;;8.48;7.30;;;;;;;;;;4994167;28;20026;-79
2022/07/26 08:19:42;;;;;;;8.85;7.95;;;;;;;;;;4957386;28;20034;-79
2022/07/26 08:22:08;;;;;;;9.88;8.18;;;;;;;;;;4985393;28;20072;-78
2022/07/26 08:24:34;;;;;;;10.93;7.97;;;;;;;;;;4988457;28;20026;-80
2022/07/26 08:26:59;;;;;;;8.63;7.72;;;;;;;;;;4992838;28;20048;-80
2022/07/26 08:29:25;;;;;;;8.65;7.47;;;;;;;;;;4976761;28;20469;-81
2022/07/26 08:31:51;;;;;;;11.95;7.53;;;;;;;;;;4993619;28;20030;-85
2022/07/26 08:34:17;;;;;;;8.27;7.47;;;;;;;;;;4995074;28;20033;-79
2022/07/26 08:36:42;;;;;;;9.10;7.57;;;;;;;;;;4975605;28;20039;-79
2022/07/26 08:39:08;;;;;;;8.90;8.00;;;;;;;;;;4993564;28;20413;-81
2022/07/26 08:41:34;;;;;;;7.57;6.88;;;;;;;;;;5006927;28;20080;-81
2022/07/26 08:44:06;;;;;;;7.93;7.22;;;;;;;;;;4992578;28;20526;-79
2022/07/26 08:46:32;;;;;;;8.48;7.47;;;;;;;;;;5008166;28;20042;-79
2022/07/26 08:48:58;;;;;;;11.05;7.75;;;;;;;;;;4979062;28;20045;-79
2022/07/26 08:51:24;;;;;;;10.60;7.95;;;;;;;;;;4994823;28;20045;-81
2022/07/26 08:53:50;;;;;;;11.07;7.38;;;;;;;;;;4993145;28;20048;-81
2022/07/26 08:56:15;;;;;;;8.63;7.22;;;;;;;;;;5027935;28;20037;-78
2022/07/26 08:58:42;;;;;;;9.68;7.30;;;;;;;;;;5013883;28;20448;-81
2022/07/26 09:01:10;;;;;;;10.32;7.97;;;;;;;;;;5014479;28;20087;-80
2022/07/26 09:03:39;;;;;;;9.55;7.53;;;;;;;;;;4998640;28;20030;-81
2022/07/26 09:06:14;;;;;;;10.40;6.70;;;;;;;;;;5013653;28;20098;-81
2022/07/26 09:08:40;;;;;;;6.93;6.18;;;;;;;;;;4998065;28;20414;-80
2022/07/26 09:11:23;;;;;;;7.68;6.38;;;;;;;;;;5030421;28;20029;-79
2022/07/26 09:13:53;;;;;;;8.60;6.40;;;;;;;;;;5031436;28;20041;-80
2022/07/26 09:16:19;;;;;;;7.90;6.50;;;;;;;;;;5007611;28;20033;-80
2022/07/26 09:18:46;;;;;;;8.75;6.75;;;;;;;;;;5011566;28;20049;-78
2022/07/26 09:21:28;;;;;;;9.50;6.63;;;;;;;;;;5031869;28;20033;-80
2022/07/26 09:23:53;;;;;;;8.35;6.25;;;;;;;;;;5000961;28;20038;-81
2022/07/26 09:26:19;;;;;;;8.13;6.57;;;;;;;;;;5017980;28;20029;-83
2022/07/26 09:28:44;;;;;;;8.48;6.38;;;;;;;;;;5035306;28;20048;-80
2022/07/26 09:31:10;;;;;;;7.10;6.18;;;;;;;;;;5017168;28;20026;-80
2022/07/26 09:34:08;;;;;;;7.57;6.13;;;;;;;;;;5034732;28;20090;-79
2022/07/26 09:36:34;;;;;;;7.38;6.00;;;;;;;;;;5017243;28;20030;-80
2022/07/26 09:39:01;;;;;;;7.82;6.57;;;;;;;;;;5010926;28;20033;-80
2022/07/26 09:41:27;;;;;;;7.30;6.45;;;;;;;;;;4995414;28;20049;-79
2022/07/26 09:43:54;;;;;;;6.45;5.85;;;;;;;;;;4989044;28;20563;-79
2022/07/26 09:46:20;;;;;;;6.53;5.70;;;;;;;;;;5016396;28;20167;-80
2022/07/26 09:48:45;;;;;;;6.28;5.68;;;;;;;;;;4992995;28;20045;-79
2022/07/26 09:51:11;;;;;;;6.28;5.60;;;;;;;;;;5000199;28;20128;-78
2022/07/26 09:53:37;;;;;;;6.75;5.60;;;;;;;;;;5033637;28;20049;-80
2022/07/26 09:56:03;;;;;;;6.97;5.78;;;;;;;;;;5033943;28;20492;-79
2022/07/26 09:58:28;;;;;;;8.88;5.43;;;;;;;;;;5001186;28;20047;-79
2022/07/26 10:00:54;;;;;;;12.20;5.70;;;;;;;;;;5000802;28;20124;-82
2022/07/26 10:03:20;;;;;;;10.07;5.70;;;;;;;;;;4998458;28;20057;-80
2022/07/26 10:05:45;;;;;;;7.35;5.75;;;;;;;;;;5014068;28;20471;-80
2022/07/26 10:08:11;;;;;;;8.75;6.35;;;;;;;;;;4998355;28;20113;-79
2022/07/26 10:10:44;;;;;;;6.82;6.22;;;;;;;;;;4997932;28;20456;-80
2022/07/26 10:13:10;;;;;;;6.60;5.78;;;;;;;;;;4998576;28;20042;-79
2022/07/26 10:15:38;;;;;;;6.50;4.90;;;;;;;;;;4996876;28;20026;-80
2022/07/26 10:18:04;;;;;;;6.43;5.38;;;;;;;;;;5016502;28;20456;-80
2022/07/26 10:20:37;;;;;;;8.88;6.60;;;;;;;;;;4998596;28;20030;-81
2022/07/26 10:23:02;;;;;;;6.70;5.38;;;;;;;;;;4995093;28;20038;-79
2022/07/26 10:25:30;;;;;;;6.78;5.55;;;;;;;;;;5010179;28;20019;-80
2022/07/26 10:27:56;;;;;;;7.07;5.25;;;;;;;;;;5015495;28;20046;-80
2022/07/26 10:30:22;;;;;;;6.40;5.72;;;;;;;;;;4998200;28;20033;-80
2022/07/26 10:33:01;;;;;;;6.07;5.47;;;;;;;;;;5014480;28;20099;-81
2022/07/26 10:35:30;;;;;;;8.10;5.90;;;;;;;;;;5015910;28;20038;-79
2022/07/26 10:37:56;;;;;;;5.78;5.18;;;;;;;;;;5015450;28;20033;-81
2022/07/26 10:40:24;;;;;;;7.03;5.25;;;;;;;;;;4985598;28;20037;-81
2022/07/26 10:42:49;;;;;;;8.05;5.82;;;;;;;;;;5035193;28;20022;-81
2022/07/26 10:45:19;;;;;;;7.63;5.38;;;;;;;;;;4999305;28;20038;-81
2022/07/26 10:48:03;;;;;;;5.53;4.80;;;;;;;;;;5014177;28;20053;-80
2022/07/26 10:50:32;;;;;;;5.97;5.18;;;;;;;;;;5002634;28;20096;-80
2022/07/26 10:52:58;;;;;;;6.38;5.18;;;;;;;;;;5014185;28;20420;-82
2022/07/26 10:55:23;;;;;;;7.88;4.68;;;;;;;;;;5015022;28;20028;-81
2022/07/26 10:57:49;;;;;;;7.72;5.40;;;;;;;;;;4982436;28;20447;-80
2022/07/26 11:00:19;;;;;;;7.32;5.50;;;;;;;;;;5013563;28;20072;-80
2022/07/26 11:02:48;;;;;;;6.70;4.95;;;;;;;;;;4965119;28;20141;-80
2022/07/26 11:05:16;;;;;;;6.60;4.75;;;;;;;;;;4980758;28;20472;-80
2022/07/26 11:07:53;;;;;;;7.65;6.32;;;;;;;;;;5014596;28;20149;-82
2022/07/26 11:10:29;;;;;;;5.95;4.82;;;;;;;;;;5014753;28;20452;-80
2022/07/26 11:13:05;;;;;;;6.57;4.68;;;;;;;;;;4997266;28;20565;-82
2022/07/26 11:15:31;;;;;;;6.57;5.65;;;;;;;;;;4980474;28;20057;-85
2022/07/26 11:18:06;;;;;;;6.28;5.40;;;;;;;;;;4997171;28;20205;-80
2022/07/26 11:20:31;;;;;;;;;;;;;;;;;;4997082;28;20034;-81
2022/07/26 11:22:57;;;;;;;5.10;4.60;;;;;;;;;;5013267;28;20639;-82
2022/07/26 11:25:22;;;;;;;5.68;4.70;;;;;;;;;;4981023;28;20050;-82
2022/07/26 11:28:01;;;;;;;7.38;4.78;;;;;;;;;;4997267;28;20040;-83
2022/07/26 11:30:26;;;;;;;6.72;5.10;;;;;;;;;;5012656;28;20408;-85
2022/07/26 11:32:52;;;;;;;5.57;4.65;;;;;;;;;;4997506;28;20033;-79
2022/07/26 11:35:18;;;;;;;5.88;5.00;;;;;;;;;;4996702;28;20394;-82
2022/07/26 11:37:55;;;;;;;5.28;4.78;;;;;;;;;;5014181;28;20111;-81
2022/07/26 11:40:40;;;;;;;6.82;5.10;;;;;;;;;;4996724;28;20037;-81
2022/07/26 11:43:05;;;;;;;6.20;4.90;;;;;;;;;;5013821;28;20500;-82
2022/07/26 11:45:31;;;;;;;5.43;4.82;;;;;;;;;;4996289;28;20022;-80
2022/07/26 11:47:57;;;;;;;5.18;4.57;;;;;;;;;;4996861;28;20061;-79
2022/07/26 11:50:23;;;;;;;7.93;5.15;;;;;;;;;;4980367;28;20121;-81
2022/07/26 11:52:48;;;;;;;6.95;4.40;;;;;;;;;;4993570;28;20517;-81
2022/07/26 11:55:14;;;;;;;8.27;4.88;;;;;;;;;;4996952;28;20401;-82
2022/07/26 11:57:39;;;;;;;8.30;5.00;;;;;;;;;;5013615;28;20061;-80
2022/07/26 12:00:05;;;;;;;6.88;5.05;;;;;;;;;;4997409;28;20056;-79
2022/07/26 12:02:39;;;;;;;5.50;4.88;;;;;;;;;;5015642;28;20069;-80
2022/07/26 12:05:11;;;;;;;5.15;4.65;;;;;;;;;;5014325;28;20386;-80
2022/07/26 12:07:37;;;;;;;5.32;4.60;;;;;;;;;;5014668;28;20500;-79
2022/07/26 12:10:02;;;;;;;7.25;5.05;;;;;;;;;;4996154;28;20028;-79
2022/07/26 12:12:28;;;;;;;8.40;5.40;;;;;;;;;;5013641;28;20054;-81
2022/07/26 12:14:57;;;;;;;5.63;5.13;;;;;;;;;;5013375;28;20104;-80
2022/07/26 12:17:22;;;;;;;5.55;4.82;;;;;;;;;;5013126;28;20029;-80
2022/07/26 12:19:48;;;;;;;5.70;4.50;;;;;;;;;;5014385;28;20117;-81
2022/07/26 12:22:14;;;;;;;6.95;4.80;;;;;;;;;;5015117;28;20038;-80
2022/07/26 12:24:41;;;;;;;4.70;4.30;;;;;;;;;;5014227;28;20440;-80
2022/07/26 12:27:10;;;;;;;5.97;4.57;;;;;;;;;;5014764;28;20030;-83
2022/07/26 12:29:37;;;;;;;5.47;4.47;;;;;;;;;;4996297;28;20060;-80
2022/07/26 12:32:03;;;;;;;9.98;8.48;;;;;;;;;;4995817;28;20041;-79
2022/07/26 12:34:29;;;;;;;5.22;4.70;;;;;;;;;;5013767;28;20030;-79
2022/07/26 12:37:03;;;;;;;5.30;4.57;;;;;;;;;;4980194;28;20097;-81
2022/07/26 12:39:29;;;;;;;5.55;4.07;;;;;;;;;;5012973;28;20044;-81
2022/07/26 12:41:54;;;;;;;4.82;4.20;;;;;;;;;;5024749;28;20481;-81
2022/07/26 12:44:21;;;;;;;4.90;4.18;;;;;;;;;;5006410;28;20033;-80
2022/07/26 12:46:47;;;;;;;6.65;4.22;;;;;;;;;;5014741;28;20029;-79
2022/07/26 12:49:12;;;;;;;5.40;4.30;;;;;;;;;;4998137;28;20042;-79
2022/07/26 12:51:38;;;;;;;4.65;4.15;;;;;;;;;;5014428;28;20065;-79
2022/07/26 12:54:05;;;;;;;4.47;4.07;;;;;;;;;;4971819;28;20045;-80
2022/07/26 12:56:31;;;;;;;4.60;4.20;;;;;;;;;;4996998;28;20452;-80
2022/07/26 12:59:05;;;;;;;4.63;4.05;;;;;;;;;;4996474;28;20030;-80
2022/07/26 13:01:31;;;;;;;4.68;4.20;;;;;;;;;;4998744;28;20034;-83
2022/07/26 13:03:57;;;;;;;5.35;4.55;;;;;;;;;;5000601;28;20507;-80
2022/07/26 13:06:22;;;;;;;6.03;4.68;;;;;;;;;;5015990;28;20026;-80
2022/07/26 13:08:48;;;;;;;6.07;5.20;;;;;;;;;;5017626;28;20034;-83
2022/07/26 13:11:14;;;;;;;5.55;5.00;;;;;;;;;;5001009;28;20034;-81
2022/07/26 13:13:39;;;;;;;7.28;5.13;;;;;;;;;;4999784;28;20029;-80
2022/07/26 13:16:05;;;;;;;6.78;5.10;;;;;;;;;;5016905;28;20026;-80
2022/07/26 13:18:30;;;;;;;6.60;5.10;;;;;;;;;;5017639;28;20400;-80
2022/07/26 13:20:56;;;;;;;5.65;5.15;;;;;;;;;;4999464;28;20037;-79
2022/07/26 13:23:21;;;;;;;5.50;5.00;;;;;;;;;;4983260;28;20040;-80
2022/07/26 13:25:47;;;;;;;6.63;5.05;;;;;;;;;;4983179;28;20034;-79
2022/07/26 13:28:14;;;;;;;5.32;4.82;;;;;;;;;;4999337;28;20037;-79
2022/07/26 13:30:42;;;;;;;5.25;4.75;;;;;;;;;;4985843;28;20033;-80
2022/07/26 13:33:07;;;;;;;7.50;5.05;;;;;;;;;;5007918;28;20113;-80
2022/07/26 13:35:33;;;;;;;5.55;4.95;;;;;;;;;;4996202;28;20058;-83
2022/07/26 13:37:58;;;;;;;7.45;5.03;;;;;;;;;;5019338;28;20038;-80
2022/07/26 13:40:24;;;;;;;5.82;5.30;;;;;;;;;;5004479;28;20543;-80
2022/07/26 13:42:49;;;;;;;6.00;5.40;;;;;;;;;;5036186;28;20479;-81
2022/07/26 13:45:14;;;;;;;7.13;5.00;;;;;;;;;;4988360;28;20041;-79
2022/07/26 13:47:40;;;;;;;12.45;5.63;;;;;;;;;;5018495;28;20029;-80
2022/07/26 13:50:06;;;;;;;6.40;5.43;;;;;;;;;;5013103;28;20038;-79
2022/07/26 13:52:32;;;;;;;6.57;4.80;;;;;;;;;;5014505;28;20057;-79
2022/07/26 13:54:57;;;;;;;7.28;5.47;;;;;;;;;;4966302;28;20030;-80
2022/07/26 13:57:23;;;;;;;7.35;5.10;;;;;;;;;;4998695;28;20068;-80
2022/07/26 13:59:48;;;;;;;5.70;5.10;;;;;;;;;;4994994;28;20497;-79
2022/07/26 14:02:14;;;;;;;6.40;5.40;;;;;;;;;;5006604;28;20054;-81
2022/07/26 14:04:39;;;;;;;5.78;5.28;;;;;;;;;;5010751;28;20053;-79
2022/07/26 14:07:05;;;;;;;6.07;5.20;;;;;;;;;;4994390;28;20033;-80
2022/07/26 14:09:30;;;;;;;8.05;5.60;;;;;;;;;;5000871;28;20033;-80
2022/07/26 14:11:55;;;;;;;5.85;5.30;;;;;;;;;;5024361;28;20041;-80
2022/07/26 14:14:22;;;;;;;8.50;5.50;;;;;;;;;;5002703;28;20076;-79
2022/07/26 14:16:47;;;;;;;6.35;5.22;;;;;;;;;;5035185;28;20091;-79
2022/07/26 14:19:13;;;;;;;5.95;5.32;;;;;;;;;;5020557;28;20033;-81
2022/07/26 14:21:38;;;;;;;6.13;5.53;;;;;;;;;;5017089;28;20031;-80
2022/07/26 14:24:04;;;;;;;6.53;5.45;;;;;;;;;;5016608;28;20392;-80
2022/07/26 14:26:29;;;;;;;6.60;5.63;;;;;;;;;;5000363;28;20443;-80
2022/07/26 14:28:55;;;;;;;7.43;5.57;;;;;;;;;;5032726;28;20079;-81
2022/07/26 14:31:20;;;;;;;6.65;5.60;;;;;;;;;;5016718;28;20031;-81
2022/07/26 14:34:18;;;;;;;6.70;6.00;;;;;;;;;;5002635;28;20044;-79
2022/07/26 14:36:44;;;;;;;6.70;6.10;;;;;;;;;;5014441;28;20404;-79